Time;durP1;ratioP1;P1;durP2;ratioP2;P2;SDS_P1;SDS_P2;PMS_P1;PMS_P2;Temp;Humidity;BMP_temperature;BMP_pressure;BME280_temperature;BME280_humidity;BME280_pressure;Samples;Min_cycle;Max_cycle;Signal;HPM_P1;HPM_P2
2022/03/13 00:00:22;;;;;;;59.27;27.77;;;;;;;-4.67;78.12;97793.09;5094079;28;20854;-37
2022/03/13 00:02:52;;;;;;;52.37;25.97;;;;;;;-4.65;78.22;97791.22;5094420;28;20431;-37
2022/03/13 00:05:20;;;;;;;46.43;22.03;;;;;;;-4.69;78.48;97786.41;5094119;28;20535;-38
2022/03/13 00:07:50;;;;;;;47.17;21.63;;;;;;;-4.63;78.27;97786.75;5094321;28;20447;-37
2022/03/13 00:10:19;;;;;;;52.53;24.20;;;;;;;-4.64;77.65;97787.72;5094268;28;20548;-36
2022/03/13 00:12:48;;;;;;;66.93;25.60;;;;;;;-4.66;77.73;97779.22;5093992;28;20438;-37
2022/03/13 00:15:15;;;;;;;62.60;27.97;;;;;;;-4.67;77.99;97781.94;5094167;28;20799;-41
2022/03/13 00:17:43;;;;;;;52.80;21.67;;;;;;;-4.78;77.90;97770.59;5093870;28;20439;-39
2022/03/13 00:20:11;;;;;;;66.70;27.90;;;;;;;-4.66;77.76;97784.41;5094011;28;20449;-41
2022/03/13 00:22:39;;;;;;;57.53;24.43;;;;;;;-4.66;77.48;97778.41;5094156;28;20454;-41
2022/03/13 00:25:10;;;;;;;49.67;22.43;;;;;;;-4.66;76.89;97774.03;5093829;28;20449;-41
2022/03/13 00:27:38;;;;;;;53.20;23.57;;;;;;;-4.65;76.45;97778.28;5094058;28;20423;-40
2022/03/13 00:30:07;;;;;;;57.70;25.87;;;;;;;-4.66;76.65;97779.22;5093629;28;20886;-40
2022/03/13 00:32:34;;;;;;;55.80;26.80;;;;;;;-4.67;76.86;97772.38;5093965;28;20438;-40
2022/03/13 00:35:02;;;;;;;47.40;21.93;;;;;;;-4.67;76.70;97776.75;5093659;28;20964;-42
2022/03/13 00:37:29;;;;;;;60.93;24.37;;;;;;;-4.69;76.77;97776.84;5093871;28;20451;-40
2022/03/13 00:39:57;;;;;;;76.60;25.57;;;;;;;-4.71;76.78;97780.50;5093890;28;20442;-41
2022/03/13 00:42:26;;;;;;;66.33;26.33;;;;;;;-4.71;77.36;97778.75;5093738;28;20443;-41
2022/03/13 00:44:53;;;;;;;64.07;25.20;;;;;;;-4.72;77.43;97771.91;5093419;28;20443;-41
2022/03/13 00:47:21;;;;;;;60.40;29.50;;;;;;;-4.76;77.27;97776.50;5093865;28;20428;-40
2022/03/13 00:49:49;;;;;;;62.67;29.63;;;;;;;-4.79;77.17;97768.97;5093331;28;20486;-41
2022/03/13 00:52:17;;;;;;;73.77;33.40;;;;;;;-4.83;78.05;97767.53;5093870;28;20450;-38
2022/03/13 00:54:44;;;;;;;57.00;27.93;;;;;;;-4.84;77.71;97765.91;5093440;28;20447;-40
2022/03/13 00:57:12;;;;;;;44.03;24.67;;;;;;;-4.86;77.59;97764.34;5093459;28;20451;-40
2022/03/13 00:59:40;;;;;;;54.73;25.67;;;;;;;-4.86;77.51;97759.16;5093650;28;20927;-42
2022/03/13 01:02:10;;;;;;;67.10;27.97;;;;;;;-4.89;77.89;97746.47;5093345;28;20800;-41
2022/03/13 01:04:38;;;;;;;50.40;24.27;;;;;;;-4.90;77.82;97749.97;5093420;28;20439;-42
2022/03/13 01:07:05;;;;;;;46.67;22.37;;;;;;;-4.92;77.54;97746.69;5093331;28;20489;-42
2022/03/13 01:09:33;;;;;;;47.77;25.73;;;;;;;-4.92;77.91;97749.28;5093562;28;20494;-42
2022/03/13 01:12:00;;;;;;;69.43;24.10;;;;;;;-4.94;78.26;97744.22;5093579;28;20443;-43
2022/03/13 01:14:29;;;;;;;68.30;25.83;;;;;;;-4.95;77.64;97738.22;5093360;28;20443;-41
2022/03/13 01:17:02;;;;;;;45.90;20.10;;;;;;;-4.97;77.71;97741.84;5093247;28;20503;-41
2022/03/13 01:19:29;;;;;;;75.33;29.60;;;;;;;-5.01;77.52;97743.84;5093171;28;20427;-42
2022/03/13 01:21:57;;;;;;;75.60;31.40;;;;;;;-5.08;77.93;97740.06;5093500;28;20529;-42
2022/03/13 01:24:32;;;;;;;52.37;23.40;;;;;;;-5.10;78.19;97723.81;5093529;28;20438;-40
2022/03/13 01:27:03;;;;;;;64.47;24.57;;;;;;;-5.13;78.67;97729.22;5093348;28;20439;-42
2022/03/13 01:29:32;;;;;;;39.17;19.80;;;;;;;-5.15;78.74;97725.94;5093080;28;20516;-41
2022/03/13 01:32:01;;;;;;;34.93;15.13;;;;;;;-5.17;79.52;97722.63;5093119;28;20446;-41
2022/03/13 01:34:47;;;;;;;23.57;13.37;;;;;;;-5.14;78.77;97719.81;5093046;28;20488;-42
2022/03/13 01:37:20;;;;;;;51.50;22.10;;;;;;;-5.13;78.38;97718.88;5092625;28;20453;-42
2022/03/13 01:39:48;;;;;;;48.33;19.90;;;;;;;-5.16;78.09;97714.75;5093896;28;20423;-42
2022/03/13 01:42:16;;;;;;;70.43;27.37;;;;;;;-5.21;78.00;97724.59;5093049;28;21001;-41
2022/03/13 01:44:43;;;;;;;82.73;28.30;;;;;;;-5.25;78.21;97718.03;5093223;28;20937;-42
2022/03/13 01:47:12;;;;;;;62.73;31.27;;;;;;;-5.28;78.00;97712.25;5092825;28;21002;-37
2022/03/13 01:49:39;;;;;;;72.10;34.03;;;;;;;-5.31;78.25;97725.41;5093078;28;20839;-41
2022/03/13 01:52:07;;;;;;;66.53;27.97;;;;;;;-5.32;79.00;97719.41;5092886;28;20438;-37
2022/03/13 01:54:34;;;;;;;69.10;29.00;;;;;;;-5.30;78.38;97721.91;5095705;28;20801;-38
2022/03/13 01:57:02;;;;;;;54.53;23.20;;;;;;;-5.29;78.32;97718.34;5096596;28;20447;-37
2022/03/13 01:59:30;;;;;;;48.20;20.20;;;;;;;-5.30;77.98;97721.91;5096738;28;20498;-37
2022/03/13 02:01:58;;;;;;;46.37;22.77;;;;;;;-5.33;77.87;97732.47;5096696;28;20824;-40
2022/03/13 02:04:30;;;;;;;46.30;24.63;;;;;;;-5.42;77.69;97733.97;5096574;28;20443;-40
2022/03/13 02:06:58;;;;;;;46.40;20.40;;;;;;;-5.39;77.70;97720.81;5096777;28;20431;-39
2022/03/13 02:09:27;;;;;;;31.17;16.17;;;;;;;-5.43;78.25;97725.38;5096541;28;20482;-37
2022/03/13 02:11:55;;;;;;;68.70;25.20;;;;;;;-5.45;78.02;97724.69;5096198;28;20474;-41
2022/03/13 02:14:24;;;;;;;94.47;33.00;;;;;;;-5.47;77.64;97721.38;5096123;28;20474;-39
2022/03/13 02:16:53;;;;;;;51.77;20.03;;;;;;;-5.48;77.16;97724.91;5096559;28;20794;-40
2022/03/13 02:19:21;;;;;;;32.10;16.87;;;;;;;-5.52;77.66;97728.66;5096174;28;20442;-40
2022/03/13 02:21:52;;;;;;;63.23;23.43;;;;;;;-5.53;77.51;97716.66;5096333;28;20450;-40
2022/03/13 02:24:25;;;;;;;46.33;21.63;;;;;;;-5.52;78.13;97722.66;5097212;28;20506;-36
2022/03/13 02:27:02;;;;;;;54.97;24.43;;;;;;;-5.54;78.48;97720.19;5096303;28;20459;-40
2022/03/13 02:29:30;;;;;;;37.13;18.80;;;;;;;-5.52;78.57;97713.13;5095840;28;20474;-39
2022/03/13 02:31:58;;;;;;;63.10;25.97;;;;;;;-5.54;77.98;97715.00;5096168;28;20443;-39
2022/03/13 02:34:26;;;;;;;58.20;19.27;;;;;;;-5.57;77.92;97710.88;5096039;28;20438;-41
2022/03/13 02:37:04;;;;;;;50.10;20.23;;;;;;;-5.59;78.69;97711.94;5095857;28;20447;-38
2022/03/13 02:39:37;;;;;;;54.50;22.00;;;;;;;-5.59;78.56;97709.34;5095900;28;20431;-40
2022/03/13 02:42:07;;;;;;;66.13;23.30;;;;;;;-5.76;78.93;97687.31;5095718;28;20841;-37
2022/03/13 02:44:34;;;;;;;56.63;24.97;;;;;;;-5.64;78.64;97709.66;5095578;28;20461;-36
2022/03/13 02:47:03;;;;;;;58.97;21.90;;;;;;;-5.67;78.67;97703.91;5095564;28;20493;-37
2022/03/13 02:49:32;;;;;;;52.60;26.07;;;;;;;-5.66;78.88;97700.38;5095461;28;20486;-37
2022/03/13 02:52:03;;;;;;;50.23;23.77;;;;;;;-5.63;78.87;97700.16;5095476;28;20809;-36
2022/03/13 02:54:30;;;;;;;40.73;19.17;;;;;;;-5.64;78.55;97688.16;5095443;28;20431;-39
2022/03/13 02:57:00;;;;;;;47.57;21.40;;;;;;;-5.66;78.45;97697.78;5095772;28;20450;-36
2022/03/13 02:59:27;;;;;;;40.23;17.77;;;;;;;-5.68;79.13;97694.50;5095439;28;20928;-39
2022/03/13 03:01:55;;;;;;;36.70;20.60;;;;;;;-5.69;78.84;97690.25;5095586;28;20439;-40
2022/03/13 03:04:24;;;;;;;49.40;21.47;;;;;;;-5.66;78.64;97690.03;5095229;28;20447;-41
2022/03/13 03:06:56;;;;;;;50.97;20.60;;;;;;;-5.67;78.64;97696.97;5095590;28;20443;-39
2022/03/13 03:09:24;;;;;;;53.83;21.80;;;;;;;-5.83;78.83;97668.81;5095239;28;20432;-37
2022/03/13 03:11:51;;;;;;;38.20;18.80;;;;;;;-5.69;78.75;97685.91;5095171;28;20446;-36
2022/03/13 03:14:21;;;;;;;35.63;18.00;;;;;;;-5.85;78.82;97667.25;5095238;28;20778;-36
2022/03/13 03:16:48;;;;;;;60.30;28.03;;;;;;;-5.68;78.74;97686.72;5095022;28;20493;-42
2022/03/13 03:19:16;;;;;;;76.33;29.83;;;;;;;-5.69;79.10;97685.09;5094985;28;20447;-39
2022/03/13 03:21:43;;;;;;;53.90;24.70;;;;;;;-5.70;79.24;97680.84;5094828;28;20447;-41
2022/03/13 03:24:15;;;;;;;46.03;22.80;;;;;;;-5.72;79.05;97687.88;5095149;28;20439;-42
2022/03/13 03:26:43;;;;;;;60.33;29.67;;;;;;;-5.73;79.08;97679.31;5095145;28;20443;-40
2022/03/13 03:29:11;;;;;;;65.70;30.47;;;;;;;-5.72;79.63;97680.13;5095104;28;20443;-40
2022/03/13 03:31:44;;;;;;;53.23;24.20;;;;;;;-5.71;79.34;97681.78;5094961;28;20494;-41
2022/03/13 03:34:15;;;;;;;43.83;19.90;;;;;;;-5.72;79.35;97680.13;5094745;28;20428;-41
2022/03/13 03:36:45;;;;;;;44.83;20.90;;;;;;;-5.69;78.92;97674.75;5094678;28;20907;-39
2022/03/13 03:39:13;;;;;;;41.87;17.33;;;;;;;-5.70;78.88;97673.06;5094885;28;20930;-41
2022/03/13 03:41:43;;;;;;;73.53;24.27;;;;;;;-5.74;78.80;97680.25;5094902;28;20939;-41
2022/03/13 03:44:11;;;;;;;75.27;27.00;;;;;;;-5.86;79.03;97655.28;5094506;28;20477;-43
2022/03/13 03:46:38;;;;;;;102.60;35.40;;;;;;;-5.76;78.59;97674.38;5094335;28;20840;-42
2022/03/13 03:49:07;;;;;;;62.43;23.27;;;;;;;-5.78;78.86;97671.06;5094471;28;20531;-42
2022/03/13 03:51:35;;;;;;;67.97;24.60;;;;;;;-5.84;79.67;97656.81;5094640;28;20509;-38
2022/03/13 03:54:03;;;;;;;58.67;23.50;;;;;;;-5.79;79.74;97656.47;5094621;28;20538;-40
2022/03/13 03:56:30;;;;;;;46.43;24.37;;;;;;;-5.79;79.27;97653.88;5094255;28;20452;-38
2022/03/13 03:58:57;;;;;;;80.90;29.53;;;;;;;-5.76;79.96;97659.66;5094519;28;20467;-37
2022/03/13 04:01:25;;;;;;;82.70;33.57;;;;;;;-5.79;80.07;97657.28;5095351;28;20443;-37
2022/03/13 04:03:52;;;;;;;100.87;35.87;;;;;;;-5.78;79.88;97660.72;5094089;28;20446;-38
2022/03/13 04:06:21;;;;;;;104.30;37.37;;;;;;;-5.79;79.92;97656.47;5094122;28;20439;-40
2022/03/13 04:08:49;;;;;;;89.53;28.47;;;;;;;-5.77;79.86;97660.59;5094414;28;20439;-38
2022/03/13 04:11:16;;;;;;;65.43;23.93;;;;;;;-5.76;80.13;97662.25;5093922;28;20487;-39
2022/03/13 04:13:44;;;;;;;43.53;16.27;;;;;;;-5.76;79.57;97664.84;5093967;28;20449;-37
2022/03/13 04:16:12;;;;;;;41.33;15.60;;;;;;;-5.75;79.63;97660.47;5093741;28;20443;-36
2022/03/13 04:18:39;;;;;;;50.77;21.87;;;;;;;-5.74;79.89;97656.97;5094184;28;20535;-41
2022/03/13 04:21:07;;;;;;;51.87;17.47;;;;;;;-5.72;79.93;97655.09;5093759;28;20808;-38
2022/03/13 04:23:37;;;;;;;53.97;16.87;;;;;;;-5.68;79.51;97655.69;5093776;28;20447;-41
2022/03/13 04:26:04;;;;;;;34.80;15.13;;;;;;;-5.72;79.28;97649.06;5093882;28;20443;-36
2022/03/13 04:28:32;;;;;;;67.17;27.90;;;;;;;-5.66;79.66;97674.50;5093759;28;20453;-37
2022/03/13 04:31:00;;;;;;;53.47;21.90;;;;;;;-5.65;79.12;97665.81;5093904;28;20523;-41
2022/03/13 04:33:28;;;;;;;60.07;21.67;;;;;;;-5.77;79.68;97652.81;5093647;28;20942;-41
2022/03/13 04:36:00;;;;;;;63.23;23.00;;;;;;;-5.66;80.45;97669.31;5094007;28;20458;-40
2022/03/13 04:38:28;;;;;;;68.17;25.17;;;;;;;-5.64;80.59;97657.09;5093664;28;20427;-38
2022/03/13 04:40:58;;;;;;;78.40;24.67;;;;;;;-5.62;80.48;97665.56;5093605;28;20443;-37
2022/03/13 04:43:26;;;;;;;66.63;29.73;;;;;;;-5.59;80.73;97655.00;5093629;28;20454;-37
2022/03/13 04:45:54;;;;;;;55.60;25.67;;;;;;;-5.53;80.74;97659.72;5093431;28;20744;-38
2022/03/13 04:48:21;;;;;;;59.60;25.80;;;;;;;-5.43;81.09;97667.63;5093512;28;20450;-36
2022/03/13 04:50:49;;;;;;;80.00;29.90;;;;;;;-5.24;80.76;97659.31;5093777;28;20501;-39
2022/03/13 04:53:17;;;;;;;99.37;38.10;;;;;;;-4.95;79.88;97665.69;5093824;28;20453;-37
2022/03/13 04:55:44;;;;;;;73.20;32.80;;;;;;;-4.57;79.19;97668.84;5093713;28;20466;-41
2022/03/13 04:58:13;;;;;;;124.57;47.60;;;;;;;-4.17;78.18;97671.69;5093467;28;20443;-38
2022/03/13 05:00:40;;;;;;;75.03;35.63;;;;;;;-3.75;76.29;97665.75;5093560;28;20447;-40
2022/03/13 05:03:10;;;;;;;79.10;33.50;;;;;;;-3.25;74.43;97678.13;5093684;28;20446;-41
2022/03/13 05:05:39;;;;;;;79.17;35.87;;;;;;;-2.94;72.66;97664.19;5093339;28;20447;-41
2022/03/13 05:08:11;;;;;;;62.47;31.67;;;;;;;-2.64;71.70;97675.53;5093627;28;20486;-38
2022/03/13 05:10:39;;;;;;;81.53;33.33;;;;;;;-2.49;71.33;97679.41;5093301;28;20555;-38
2022/03/13 05:13:07;;;;;;;70.93;32.90;;;;;;;-2.37;70.82;97680.13;5093569;28;20443;-41
2022/03/13 05:15:36;;;;;;;146.60;49.87;;;;;;;-2.33;70.75;97691.09;5093844;28;20442;-38
2022/03/13 05:18:03;;;;;;;69.93;33.73;;;;;;;-2.25;70.28;97690.44;5093163;28;20447;-38
2022/03/13 05:20:35;;;;;;;147.10;53.93;;;;;;;-2.00;69.45;97691.69;5093507;28;20470;-38
2022/03/13 05:23:04;;;;;;;189.30;65.67;;;;;;;-1.67;68.71;97688.72;5093481;28;20450;-39
2022/03/13 05:25:32;;;;;;;164.30;51.93;;;;;;;-1.13;67.87;97696.88;5093136;28;20465;-40
2022/03/13 05:28:00;;;;;;;101.10;45.60;;;;;;;-0.57;66.17;97697.81;5093980;28;20446;-37
2022/03/13 05:30:27;;;;;;;93.60;38.03;;;;;;;-0.08;64.93;97703.59;5096969;28;20962;-40
2022/03/13 05:32:57;;;;;;;90.30;44.40;;;;;;;0.38;62.98;97701.75;5085349;28;20957;-37
2022/03/13 05:35:25;;;;;;;80.63;40.70;;;;;;;0.69;61.75;97696.16;5076940;28;20440;-37
2022/03/13 05:37:52;;;;;;;97.67;37.20;;;;;;;0.80;59.90;97698.53;5076493;28;20935;-37
2022/03/13 05:40:21;;;;;;;67.50;34.70;;;;;;;1.01;59.21;97694.72;5076745;28;20931;-38
2022/03/13 05:42:50;;;;;;;62.90;27.47;;;;;;;1.26;58.20;97702.72;5076449;28;20965;-40
2022/03/13 05:45:20;;;;;;;78.73;37.50;;;;;;;1.43;57.83;97700.03;5076336;28;20842;-38
2022/03/13 05:47:49;;;;;;;98.80;41.00;;;;;;;1.53;57.27;97692.09;5078174;28;20424;-39
2022/03/13 05:50:18;;;;;;;107.40;44.40;;;;;;;1.65;57.26;97687.38;5097075;28;20446;-38
2022/03/13 05:52:48;;;;;;;122.70;51.47;;;;;;;1.93;56.86;97695.81;5096724;28;20439;-38
2022/03/13 05:55:17;;;;;;;107.23;45.87;;;;;;;2.20;56.34;97696.53;5096958;28;20431;-39
2022/03/13 05:57:45;;;;;;;128.23;56.80;;;;;;;2.46;56.47;97691.16;5096511;28;20439;-38
2022/03/13 06:00:14;;;;;;;150.90;56.43;;;;;;;2.62;55.27;97679.84;5096492;28;20443;-39
2022/03/13 06:02:42;;;;;;;107.60;46.43;;;;;;;3.01;55.22;97703.63;5096476;28;20521;-39
2022/03/13 06:05:11;;;;;;;87.20;39.93;;;;;;;3.31;55.41;97705.69;5096445;28;20467;-38
2022/03/13 06:07:41;;;;;;;74.10;32.67;;;;;;;3.64;54.48;97707.22;5096402;28;20493;-38
2022/03/13 06:10:09;;;;;;;50.07;22.70;;;;;;;3.71;53.25;97680.28;5096251;28;20533;-37
2022/03/13 06:12:37;;;;;;;36.97;20.60;;;;;;;3.77;52.47;97700.63;5096169;28;20487;-37
2022/03/13 06:15:06;;;;;;;23.97;12.93;;;;;;;4.02;52.62;97710.03;5096505;28;20451;-38
2022/03/13 06:17:34;;;;;;;11.07;7.83;;;;;;;4.18;51.14;97695.97;5096160;28;20451;-37
2022/03/13 06:20:03;;;;;;;16.97;8.40;;;;;;;4.38;50.62;97698.97;5096097;28;20478;-38
2022/03/13 06:22:30;;;;;;;15.50;6.23;;;;;;;4.68;50.13;97693.81;5095847;28;20454;-38
2022/03/13 06:24:59;;;;;;;16.63;9.07;;;;;;;4.76;48.10;97699.03;5095905;28;20786;-38
2022/03/13 06:27:27;;;;;;;18.33;11.60;;;;;;;4.64;48.62;97692.53;5096171;28;20941;-39
2022/03/13 06:29:55;;;;;;;15.80;7.80;;;;;;;4.44;48.58;97690.38;5095908;28;20445;-39
2022/03/13 06:32:23;;;;;;;15.30;9.50;;;;;;;4.07;48.38;97686.66;5095764;28;20520;-38
2022/03/13 06:34:50;;;;;;;20.93;11.23;;;;;;;3.90;48.86;97691.19;5093688;28;20504;-40
2022/03/13 06:37:17;;;;;;;23.33;12.40;;;;;;;3.79;49.30;97691.56;5075847;28;20506;-38
2022/03/13 06:39:44;;;;;;;50.27;23.37;;;;;;;3.43;49.15;97691.22;5075153;28;20455;-37
2022/03/13 06:42:13;;;;;;;35.77;18.90;;;;;;;3.33;50.25;97693.22;5075826;28;20518;-37
2022/03/13 06:44:40;;;;;;;35.87;19.10;;;;;;;3.31;50.71;97690.75;5075379;28;20448;-39
2022/03/13 06:47:08;;;;;;;29.27;16.63;;;;;;;3.26;51.13;97683.38;5075221;28;20578;-39
2022/03/13 06:49:49;;;;;;;51.63;22.40;;;;;;;3.32;51.79;97675.84;5075446;28;20444;-39
2022/03/13 06:52:19;;;;;;;45.43;21.77;;;;;;;3.54;50.80;97698.72;5075309;28;20479;-39
2022/03/13 06:54:47;;;;;;;45.13;19.40;;;;;;;3.56;50.66;97688.88;5075104;28;21002;-38
2022/03/13 06:57:16;;;;;;;17.27;9.90;;;;;;;3.65;49.79;97693.09;5075577;28;20486;-39
2022/03/13 06:59:44;;;;;;;25.90;12.70;;;;;;;3.77;49.39;97698.00;5075183;28;20443;-38
2022/03/13 07:02:12;;;;;;;18.80;10.30;;;;;;;3.97;50.67;97701.00;5075008;28;20798;-39
2022/03/13 07:04:39;;;;;;;32.13;13.97;;;;;;;3.99;51.35;97673.56;5074927;28;20811;-39
2022/03/13 07:07:07;;;;;;;40.87;18.63;;;;;;;4.39;51.18;97684.00;5074828;28;20792;-39
2022/03/13 07:09:34;;;;;;;35.23;14.63;;;;;;;4.73;51.10;97694.09;5074845;28;20543;-38
2022/03/13 07:12:02;;;;;;;16.83;10.67;;;;;;;4.92;49.38;97685.69;5074786;28;20491;-39
2022/03/13 07:14:33;;;;;;;10.93;8.50;;;;;;;5.02;47.67;97687.28;5075070;28;20776;-39
2022/03/13 07:17:00;;;;;;;14.60;8.77;;;;;;;5.26;45.96;97681.75;5074834;28;20428;-40
2022/03/13 07:19:27;;;;;;;13.17;7.33;;;;;;;5.20;46.31;97677.22;5074970;28;20799;-39
2022/03/13 07:21:54;;;;;;;14.60;8.20;;;;;;;5.24;48.67;97682.94;5074610;28;20447;-39
2022/03/13 07:24:22;;;;;;;21.87;11.37;;;;;;;5.34;47.46;97679.06;5074546;28;20440;-39
2022/03/13 07:26:49;;;;;;;37.10;15.30;;;;;;;5.48;46.40;97684.50;5074861;28;20522;-39
2022/03/13 07:29:16;;;;;;;59.43;21.97;;;;;;;5.49;43.19;97686.94;5074410;28;20450;-39
2022/03/13 07:31:45;;;;;;;28.03;12.27;;;;;;;5.74;42.21;97687.50;5074466;28;20493;-39
2022/03/13 07:34:12;;;;;;;21.20;7.43;;;;;;;5.96;39.25;97679.69;5074358;28;20447;-39
2022/03/13 07:36:39;;;;;;;43.80;17.37;;;;;;;6.14;38.74;97685.34;5074282;28;20443;-39
2022/03/13 07:39:07;;;;;;;15.00;7.53;;;;;;;6.20;38.36;97683.78;5074473;28;20439;-39
2022/03/13 07:41:34;;;;;;;12.53;7.77;;;;;;;5.89;37.05;97670.81;5074434;28;20455;-39
2022/03/13 07:44:04;;;;;;;10.33;7.37;;;;;;;6.17;38.07;97667.50;5074225;28;20451;-40
2022/03/13 07:46:31;;;;;;;11.43;6.70;;;;;;;6.46;39.12;97663.97;5073869;28;20818;-39
2022/03/13 07:49:00;;;;;;;17.83;9.50;;;;;;;6.75;37.61;97673.53;5074098;28;20943;-39
2022/03/13 07:51:27;;;;;;;12.80;9.37;;;;;;;6.94;37.12;97672.88;5092990;28;21063;-39
2022/03/13 07:53:54;;;;;;;11.60;6.60;;;;;;;7.05;37.45;97668.09;5094279;28;20489;-39
2022/03/13 07:56:23;;;;;;;21.23;10.63;;;;;;;7.17;36.87;97680.56;5094243;28;20446;-39
2022/03/13 07:58:50;;;;;;;12.80;8.03;;;;;;;7.24;36.73;97685.09;5094214;28;20492;-39
2022/03/13 08:01:17;;;;;;;8.77;5.47;;;;;;;6.53;33.06;97673.56;5094495;28;20807;-39
2022/03/13 08:03:45;;;;;;;26.57;12.23;;;;;;;6.86;37.90;97673.06;5094462;28;20447;-39
2022/03/13 08:06:14;;;;;;;14.33;7.63;;;;;;;7.03;35.24;97680.66;5094377;28;20447;-39
2022/03/13 08:08:41;;;;;;;19.53;10.77;;;;;;;7.25;36.12;97692.84;5094063;28;20447;-39
2022/03/13 08:11:08;;;;;;;8.03;5.17;;;;;;;7.15;34.13;97676.50;5093871;28;20450;-39
2022/03/13 08:13:35;;;;;;;10.97;5.27;;;;;;;7.22;35.57;97676.53;5093967;28;20977;-39
2022/03/13 08:16:03;;;;;;;15.80;9.07;;;;;;;7.14;35.71;97669.56;5093877;28;20457;-40
2022/03/13 08:18:30;;;;;;;23.10;10.73;;;;;;;7.18;36.33;97660.25;5094241;28;20792;-39
2022/03/13 08:20:57;;;;;;;18.37;9.63;;;;;;;7.22;35.78;97677.34;5093854;28;20446;-39
2022/03/13 08:23:26;;;;;;;24.07;10.67;;;;;;;7.16;36.93;97668.41;5094069;28;20439;-39
2022/03/13 08:25:53;;;;;;;11.87;7.73;;;;;;;7.00;36.71;97671.31;5094100;28;20793;-39
2022/03/13 08:28:20;;;;;;;16.23;6.47;;;;;;;7.03;38.07;97680.66;5093733;28;20918;-39
2022/03/13 08:30:48;;;;;;;9.07;5.20;;;;;;;6.98;36.25;97675.97;5094015;28;20518;-39
2022/03/13 08:33:15;;;;;;;8.80;4.97;;;;;;;6.87;37.40;97669.38;5093589;28;20491;-39
2022/03/13 08:35:43;;;;;;;8.57;5.37;;;;;;;6.65;36.01;97670.44;5094146;28;20442;-39
2022/03/13 08:38:10;;;;;;;12.43;6.30;;;;;;;6.70;37.44;97678.59;5093973;28;20451;-39
2022/03/13 08:40:39;;;;;;;17.30;9.47;;;;;;;6.91;37.10;97670.63;5093796;28;20455;-39
2022/03/13 08:43:08;;;;;;;20.63;12.33;;;;;;;7.10;38.24;97663.06;5093288;28;20934;-40
2022/03/13 08:45:36;;;;;;;33.37;20.30;;;;;;;7.51;35.70;97672.88;5093085;28;20478;-39
2022/03/13 08:48:03;;;;;;;13.37;7.00;;;;;;;7.83;35.42;97678.50;5093550;28;20439;-39
2022/03/13 08:50:30;;;;;;;54.93;24.47;;;;;;;7.89;36.13;97677.72;5093144;28;20487;-39
2022/03/13 08:52:58;;;;;;;22.03;10.40;;;;;;;7.64;35.18;97675.56;5093543;28;20498;-39
2022/03/13 08:55:25;;;;;;;26.13;12.10;;;;;;;7.71;37.18;97676.41;5093679;28;20447;-39
2022/03/13 08:57:54;;;;;;;12.20;6.87;;;;;;;7.66;36.81;97670.91;5093254;28;20493;-39
2022/03/13 09:00:24;;;;;;;12.53;6.30;;;;;;;7.71;36.92;97676.41;5093359;28;20450;-39
2022/03/13 09:02:53;;;;;;;14.70;8.27;;;;;;;7.54;36.33;97672.47;5095366;28;21008;-40
2022/03/13 09:05:20;;;;;;;24.40;9.90;;;;;;;7.32;35.83;97666.44;5097506;28;20450;-39
2022/03/13 09:07:47;;;;;;;9.33;6.70;;;;;;;7.42;35.64;97682.78;5097841;28;20473;-39
2022/03/13 09:10:15;;;;;;;21.37;10.20;;;;;;;7.55;36.21;97672.28;5097391;28;20447;-40
2022/03/13 09:12:42;;;;;;;18.77;11.17;;;;;;;7.67;34.83;97679.66;5097603;28;20490;-39
2022/03/13 09:15:11;;;;;;;27.00;13.10;;;;;;;7.91;35.23;97671.19;5098213;28;20439;-39
2022/03/13 09:17:38;;;;;;;20.60;12.37;;;;;;;8.14;34.97;97670.88;5097672;28;20439;-39
2022/03/13 09:20:06;;;;;;;9.70;6.60;;;;;;;8.36;35.39;97652.22;5097213;28;20450;-39
2022/03/13 09:22:35;;;;;;;33.63;14.80;;;;;;;8.27;34.62;97659.53;5098137;28;20447;-39
2022/03/13 09:25:04;;;;;;;16.60;8.27;;;;;;;8.40;35.16;97656.09;5097513;28;20498;-39
2022/03/13 09:27:31;;;;;;;26.73;11.40;;;;;;;8.53;34.12;97653.47;5097741;28;20454;-39
2022/03/13 09:29:59;;;;;;;8.10;7.00;;;;;;;8.50;34.36;97658.38;5097035;28;20446;-39
2022/03/13 09:32:28;;;;;;;13.17;8.77;;;;;;;8.56;35.86;97661.03;5096907;28;20489;-39
2022/03/13 09:34:58;;;;;;;14.13;8.97;;;;;;;7.76;33.68;97660.75;5097353;28;20965;-39
2022/03/13 09:37:25;;;;;;;16.00;7.83;;;;;;;7.61;33.65;97654.81;5097460;28;20525;-39
2022/03/13 09:39:53;;;;;;;10.47;5.40;;;;;;;7.66;34.40;97657.69;5096878;28;20443;-39
2022/03/13 09:42:20;;;;;;;16.93;7.93;;;;;;;7.78;35.31;97653.47;5096812;28;20476;-39
2022/03/13 09:44:47;;;;;;;13.50;6.87;;;;;;;7.91;35.93;97657.97;5097271;28;20435;-39
2022/03/13 09:47:14;;;;;;;17.17;9.33;;;;;;;8.04;34.42;97654.56;5097088;28;20474;-39
2022/03/13 09:49:44;;;;;;;10.57;5.67;;;;;;;8.03;34.63;97631.78;5096916;28;20446;-39
2022/03/13 09:52:11;;;;;;;14.67;8.17;;;;;;;8.26;34.99;97651.78;5096860;28;20497;-38
2022/03/13 09:54:39;;;;;;;20.33;9.60;;;;;;;8.35;33.77;97650.59;5096640;28;20449;-38
2022/03/13 09:57:06;;;;;;;10.77;6.03;;;;;;;7.96;33.56;97655.56;5096510;28;20443;-38
2022/03/13 09:59:35;;;;;;;8.50;4.53;;;;;;;7.93;32.69;97642.72;5096900;28;20446;-39
2022/03/13 10:02:05;;;;;;;18.03;9.17;;;;;;;7.82;32.57;97645.16;5096488;28;20450;-39
2022/03/13 10:04:33;;;;;;;30.00;11.57;;;;;;;7.58;31.13;97640.16;5096419;28;20433;-39
2022/03/13 10:07:08;;;;;;;13.93;6.67;;;;;;;7.24;31.44;97622.50;5096366;28;20435;-39
2022/03/13 10:09:37;;;;;;;24.87;10.93;;;;;;;7.22;32.82;97639.56;5096739;28;20431;-38
2022/03/13 10:12:12;;;;;;;55.83;21.17;;;;;;;7.46;34.17;97638.28;5096553;28;20483;-39
2022/03/13 10:14:59;;;;;;;30.00;14.80;;;;;;;7.75;34.97;97643.28;5095854;28;20423;-38
2022/03/13 10:17:27;;;;;;;19.20;11.83;;;;;;;7.92;34.38;97645.59;5096240;28;21002;-38
2022/03/13 10:19:55;;;;;;;52.87;18.37;;;;;;;7.93;34.29;97649.84;5096071;28;20462;-39
2022/03/13 10:22:30;;;;;;;58.00;21.33;;;;;;;8.11;33.66;97628.13;5082051;28;20491;-39
2022/03/13 10:24:57;;;;;;;15.40;7.97;;;;;;;8.23;33.89;97631.03;5075865;28;20463;-39
2022/03/13 10:27:24;;;;;;;9.40;6.40;;;;;;;8.18;30.33;97645.66;5076514;28;20440;-39
2022/03/13 10:29:52;;;;;;;8.40;5.80;;;;;;;8.09;30.70;97625.72;5075675;28;20446;-39
2022/03/13 10:32:20;;;;;;;275.30;93.23;;;;;;;7.92;31.56;97624.44;5075602;28;20490;-39
2022/03/13 10:34:56;;;;;;;15.27;11.07;;;;;;;7.36;33.00;97607.75;5075563;28;20962;-39
2022/03/13 10:37:38;;;;;;;12.33;6.03;;;;;;;7.38;31.38;97626.88;5075853;28;20432;-38
2022/03/13 10:40:12;;;;;;;11.73;7.70;;;;;;;7.09;32.78;97624.44;5075951;28;20810;-39
2022/03/13 10:42:44;;;;;;;6.03;5.43;;;;;;;7.17;35.00;97637.50;5076095;28;20462;-38
2022/03/13 10:45:36;;;;;;;8.40;5.80;;;;;;;7.10;32.29;97623.47;5075288;28;20491;-39
2022/03/13 10:48:24;;;;;;;10.30;5.77;;;;;;;7.23;31.72;97626.19;5075712;28;20440;-38
2022/03/13 10:50:52;;;;;;;10.70;6.90;;;;;;;7.37;33.49;97617.28;5075315;28;20425;-39
2022/03/13 10:53:21;;;;;;;14.03;7.10;;;;;;;7.49;33.15;97624.69;5075183;28;20484;-39
2022/03/13 10:56:07;;;;;;;14.90;6.90;;;;;;;7.54;31.53;97620.44;5075527;28;20517;-39
2022/03/13 10:58:35;;;;;;;28.50;13.07;;;;;;;7.50;30.57;97628.94;5075545;28;20505;-38
2022/03/13 11:01:05;;;;;;;8.50;5.50;;;;;;;7.29;28.05;97598.97;5074999;28;20459;-39
2022/03/13 11:03:34;;;;;;;9.63;6.77;;;;;;;7.42;31.38;97618.53;5075373;28;20513;-39
2022/03/13 11:06:02;;;;;;;8.90;5.17;;;;;;;7.15;28.98;97618.41;5075036;28;20440;-39
2022/03/13 11:08:31;;;;;;;39.13;15.53;;;;;;;7.46;33.54;97617.94;5074883;28;20451;-39
2022/03/13 11:10:59;;;;;;;9.03;6.97;;;;;;;7.69;31.30;97604.44;5074771;28;20474;-39
2022/03/13 11:13:27;;;;;;;82.03;26.40;;;;;;;7.90;32.90;97605.31;5075100;28;20986;-39
2022/03/13 11:15:57;;;;;;;34.40;13.30;;;;;;;8.07;31.40;97598.66;5074719;28;20497;-39
2022/03/13 11:18:32;;;;;;;47.40;19.93;;;;;;;8.16;31.58;97602.72;5075193;28;20931;-38
2022/03/13 11:21:00;;;;;;;15.93;9.13;;;;;;;8.30;32.82;97605.38;5074652;28;20432;-39
2022/03/13 11:23:31;;;;;;;11.27;5.63;;;;;;;8.36;31.28;97601.94;5074908;28;20444;-39
2022/03/13 11:26:01;;;;;;;12.57;6.73;;;;;;;8.23;28.37;97578.13;5073506;28;20788;-39
2022/03/13 11:28:29;;;;;;;5.80;4.93;;;;;;;8.26;28.27;97588.28;5074720;28;20443;-39
2022/03/13 11:30:57;;;;;;;13.00;6.73;;;;;;;8.12;30.42;97590.91;5074468;28;20485;-39